sensor_id;sensor_type;location;lat;lon;timestamp;pressure;altitude;pressure_sealevel;temperature;humidity
37610;BME280;23457;51.966;8.230;2024-01-25T00:01:59;101825.28;;;9.15;100.00
37610;BME280;23457;51.966;8.230;2024-01-25T00:04:26;101822.09;;;9.22;100.00
37610;BME280;23457;51.966;8.230;2024-01-25T00:06:53;101822.25;;;9.04;100.00
37610;BME280;23457;51.966;8.230;2024-01-25T00:09:20;101833.53;;;9.27;100.00
37610;BME280;23457;51.966;8.230;2024-01-25T00:11:47;101829.03;;;9.01;100.00
37610;BME280;23457;51.966;8.230;2024-01-25T00:14:14;101830.44;;;9.15;100.00
37610;BME280;23457;51.966;8.230;2024-01-25T00:16:41;101823.34;;;8.88;100.00
37610;BME280;23457;51.966;8.230;2024-01-25T00:19:08;101822.72;;;8.94;100.00
37610;BME280;23457;51.966;8.230;2024-01-25T00:21:41;101828.97;;;8.78;100.00
37610;BME280;23457;51.966;8.230;2024-01-25T00:24:12;101829.09;;;9.02;100.00
37610;BME280;23457;51.966;8.230;2024-01-25T00:26:39;101828.47;;;9.08;100.00
37610;BME280;23457;51.966;8.230;2024-01-25T00:29:06;101828.81;;;9.17;100.00
37610;BME280;23457;51.966;8.230;2024-01-25T00:31:33;101823.81;;;8.99;100.00
37610;BME280;23457;51.966;8.230;2024-01-25T00:34:01;101829.69;;;8.95;100.00
37610;BME280;23457;51.966;8.230;2024-01-25T00:36:29;101832.41;;;8.98;100.00
37610;BME280;23457;51.966;8.230;2024-01-25T00:38:56;101828.94;;;8.97;100.00
37610;BME280;23457;51.966;8.230;2024-01-25T00:41:23;101841.19;;;8.81;100.00
37610;BME280;23457;51.966;8.230;2024-01-25T00:43:50;101830.50;;;8.94;100.00
37610;BME280;23457;51.966;8.230;2024-01-25T00:46:18;101835.00;;;8.98;100.00
37610;BME280;23457;51.966;8.230;2024-01-25T00:48:45;101832.22;;;8.93;100.00
37610;BME280;23457;51.966;8.230;2024-01-25T00:51:14;101830.06;;;8.83;100.00
37610;BME280;23457;51.966;8.230;2024-01-25T00:53:42;101829.75;;;8.96;100.00
37610;BME280;23457;51.966;8.230;2024-01-25T00:56:10;101834.50;;;8.86;100.00
37610;BME280;23457;51.966;8.230;2024-01-25T00:58:37;101845.69;;;8.85;100.00
37610;BME280;23457;51.966;8.230;2024-01-25T01:01:04;101845.63;;;8.83;100.00
37610;BME280;23457;51.966;8.230;2024-01-25T01:03:31;101838.22;;;8.72;100.00
37610;BME280;23457;51.966;8.230;2024-01-25T01:05:59;101848.25;;;8.64;100.00
37610;BME280;23457;51.966;8.230;2024-01-25T01:08:27;101854.03;;;8.78;100.00
37610;BME280;23457;51.966;8.230;2024-01-25T01:10:54;101854.66;;;8.93;100.00
37610;BME280;23457;51.966;8.230;2024-01-25T01:13:21;101859.91;;;8.74;100.00
37610;BME280;23457;51.966;8.230;2024-01-25T01:15:48;101849.09;;;8.63;100.00
37610;BME280;23457;51.966;8.230;2024-01-25T01:18:16;101857.88;;;8.87;100.00
37610;BME280;23457;51.966;8.230;2024-01-25T01:20:43;101863.78;;;8.83;100.00
37610;BME280;23457;51.966;8.230;2024-01-25T01:23:10;101861.88;;;8.58;100.00
37610;BME280;23457;51.966;8.230;2024-01-25T01:25:36;101863.72;;;8.61;100.00
37610;BME280;23457;51.966;8.230;2024-01-25T01:28:03;101857.81;;;8.65;100.00
37610;BME280;23457;51.966;8.230;2024-01-25T01:30:30;101857.75;;;8.63;100.00
37610;BME280;23457;51.966;8.230;2024-01-25T01:32:57;101866.69;;;8.70;100.00
37610;BME280;23457;51.966;8.230;2024-01-25T01:35:24;101865.34;;;8.59;100.00
37610;BME280;23457;51.966;8.230;2024-01-25T01:37:51;101858.38;;;8.79;100.00
37610;BME280;23457;51.966;8.230;2024-01-25T01:40:18;101857.66;;;8.41;100.00
37610;BME280;23457;51.966;8.230;2024-01-25T01:42:46;101861.72;;;8.35;100.00
37610;BME280;23457;51.966;8.230;2024-01-25T01:45:15;101862.53;;;8.54;100.00
37610;BME280;23457;51.966;8.230;2024-01-25T01:47:42;101867.06;;;8.58;100.00
37610;BME280;23457;51.966;8.230;2024-01-25T01:50:10;101870.91;;;8.47;100.00
37610;BME280;23457;51.966;8.230;2024-01-25T01:52:37;101866.47;;;8.45;100.00
37610;BME280;23457;51.966;8.230;2024-01-25T01:55:05;101867.13;;;8.41;100.00
37610;BME280;23457;51.966;8.230;2024-01-25T01:57:36;101857.47;;;8.37;100.00
37610;BME280;23457;51.966;8.230;2024-01-25T02:00:06;101857.00;;;8.45;100.00
37610;BME280;23457;51.966;8.230;2024-01-25T02:02:38;101854.19;;;8.21;100.00
37610;BME280;23457;51.966;8.230;2024-01-25T02:05:05;101847.34;;;8.23;100.00
37610;BME280;23457;51.966;8.230;2024-01-25T02:07:32;101845.41;;;8.18;100.00
37610;BME280;23457;51.966;8.230;2024-01-25T02:09:59;101852.13;;;8.14;100.00
37610;BME280;23457;51.966;8.230;2024-01-25T02:12:26;101866.38;;;8.24;100.00
37610;BME280;23457;51.966;8.230;2024-01-25T02:14:52;101863.50;;;8.36;100.00
37610;BME280;23457;51.966;8.230;2024-01-25T02:17:19;101871.22;;;8.16;100.00
37610;BME280;23457;51.966;8.230;2024-01-25T02:19:46;101881.72;;;8.19;100.00
37610;BME280;23457;51.966;8.230;2024-01-25T02:22:16;101884.63;;;8.27;100.00
37610;BME280;23457;51.966;8.230;2024-01-25T02:24:44;101893.56;;;8.14;100.00
37610;BME280;23457;51.966;8.230;2024-01-25T02:27:11;101897.25;;;8.19;100.00
37610;BME280;23457;51.966;8.230;2024-01-25T02:29:38;101898.22;;;8.41;100.00
37610;BME280;23457;51.966;8.230;2024-01-25T02:32:05;101898.53;;;8.29;100.00
37610;BME280;23457;51.966;8.230;2024-01-25T02:34:32;101894.59;;;8.18;100.00
37610;BME280;23457;51.966;8.230;2024-01-25T02:36:59;101894.94;;;8.25;100.00
37610;BME280;23457;51.966;8.230;2024-01-25T02:39:26;101893.38;;;8.10;100.00
37610;BME280;23457;51.966;8.230;2024-01-25T02:41:53;101893.31;;;8.08;100.00
37610;BME280;23457;51.966;8.230;2024-01-25T02:44:19;101904.06;;;7.98;100.00
37610;BME280;23457;51.966;8.230;2024-01-25T02:46:46;101907.75;;;8.03;100.00
37610;BME280;23457;51.966;8.230;2024-01-25T02:49:13;101898.69;;;7.94;100.00
37610;BME280;23457;51.966;8.230;2024-01-25T02:51:40;101910.13;;;7.99;100.00
37610;BME280;23457;51.966;8.230;2024-01-25T02:54:07;101916.22;;;8.18;100.00
37610;BME280;23457;51.966;8.230;2024-01-25T02:56:34;101917.59;;;8.10;100.00
37610;BME280;23457;51.966;8.230;2024-01-25T02:59:02;101936.22;;;8.03;100.00
37610;BME280;23457;51.966;8.230;2024-01-25T03:01:37;101937.53;;;8.13;100.00
37610;BME280;23457;51.966;8.230;2024-01-25T03:04:04;101942.69;;;7.94;100.00
37610;BME280;23457;51.966;8.230;2024-01-25T03:06:31;101947.47;;;8.04;100.00
37610;BME280;23457;51.966;8.230;2024-01-25T03:08:58;101946.16;;;7.94;100.00
37610;BME280;23457;51.966;8.230;2024-01-25T03:11:25;101940.56;;;7.85;100.00
37610;BME280;23457;51.966;8.230;2024-01-25T03:13:52;101932.53;;;7.98;100.00
37610;BME280;23457;51.966;8.230;2024-01-25T03:16:18;101938.88;;;8.05;100.00
37610;BME280;23457;51.966;8.230;2024-01-25T03:18:45;101954.09;;;7.97;100.00
37610;BME280;23457;51.966;8.230;2024-01-25T03:21:12;101951.75;;;8.03;100.00
37610;BME280;23457;51.966;8.230;2024-01-25T03:23:39;101952.81;;;7.89;100.00
37610;BME280;23457;51.966;8.230;2024-01-25T03:26:06;101948.22;;;8.01;100.00
37610;BME280;23457;51.966;8.230;2024-01-25T03:28:35;101950.31;;;7.90;100.00
37610;BME280;23457;51.966;8.230;2024-01-25T03:31:03;101943.31;;;8.07;100.00
37610;BME280;23457;51.966;8.230;2024-01-25T03:33:30;101956.22;;;7.88;100.00
37610;BME280;23457;51.966;8.230;2024-01-25T03:36:03;101950.16;;;7.87;100.00
37610;BME280;23457;51.966;8.230;2024-01-25T03:38:30;101957.84;;;7.86;100.00
37610;BME280;23457;51.966;8.230;2024-01-25T03:40:57;101955.97;;;7.82;100.00
37610;BME280;23457;51.966;8.230;2024-01-25T03:43:25;101943.19;;;7.67;100.00
37610;BME280;23457;51.966;8.230;2024-01-25T03:45:59;101955.66;;;7.76;100.00
37610;BME280;23457;51.966;8.230;2024-01-25T03:48:26;101948.13;;;7.80;100.00
37610;BME280;23457;51.966;8.230;2024-01-25T03:50:53;101950.28;;;7.71;100.00
37610;BME280;23457;51.966;8.230;2024-01-25T03:53:23;101947.25;;;7.62;100.00
37610;BME280;23457;51.966;8.230;2024-01-25T03:55:50;101968.31;;;7.70;100.00
37610;BME280;23457;51.966;8.230;2024-01-25T03:58:17;101974.59;;;7.75;100.00
37610;BME280;23457;51.966;8.230;2024-01-25T04:00:47;101978.22;;;7.61;100.00
37610;BME280;23457;51.966;8.230;2024-01-25T04:03:14;101973.41;;;7.50;100.00
37610;BME280;23457;51.966;8.230;2024-01-25T04:05:41;101975.34;;;7.54;100.00
37610;BME280;23457;51.966;8.230;2024-01-25T04:08:08;101974.31;;;7.51;100.00
37610;BME280;23457;51.966;8.230;2024-01-25T04:10:35;101976.59;;;7.63;100.00
37610;BME280;23457;51.966;8.230;2024-01-25T04:13:02;101973.88;;;7.60;100.00
37610;BME280;23457;51.966;8.230;2024-01-25T04:15:31;101982.13;;;7.52;100.00
37610;BME280;23457;51.966;8.230;2024-01-25T04:17:58;101977.41;;;7.62;100.00
37610;BME280;23457;51.966;8.230;2024-01-25T04:20:25;101981.09;;;7.49;100.00
37610;BME280;23457;51.966;8.230;2024-01-25T04:22:52;101966.59;;;7.35;100.00
37610;BME280;23457;51.966;8.230;2024-01-25T04:25:19;101968.03;;;7.28;100.00
37610;BME280;23457;51.966;8.230;2024-01-25T04:27:46;101969.28;;;7.36;100.00
37610;BME280;23457;51.966;8.230;2024-01-25T04:30:16;101973.50;;;7.34;100.00
37610;BME280;23457;51.966;8.230;2024-01-25T04:32:43;101975.66;;;7.43;100.00
37610;BME280;23457;51.966;8.230;2024-01-25T04:35:13;101975.50;;;7.40;100.00
37610;BME280;23457;51.966;8.230;2024-01-25T04:37:40;101979.03;;;7.77;100.00
37610;BME280;23457;51.966;8.230;2024-01-25T04:40:07;101999.13;;;7.47;100.00
37610;BME280;23457;51.966;8.230;2024-01-25T04:42:37;101996.50;;;7.46;100.00
37610;BME280;23457;51.966;8.230;2024-01-25T04:45:04;102008.00;;;7.52;100.00
37610;BME280;23457;51.966;8.230;2024-01-25T04:47:31;102007.03;;;7.50;100.00
37610;BME280;23457;51.966;8.230;2024-01-25T04:49:58;102014.06;;;7.53;100.00
37610;BME280;23457;51.966;8.230;2024-01-25T04:52:25;102021.88;;;7.37;100.00
37610;BME280;23457;51.966;8.230;2024-01-25T04:54:52;102026.50;;;7.42;100.00
37610;BME280;23457;51.966;8.230;2024-01-25T04:57:19;102027.94;;;7.37;100.00
37610;BME280;23457;51.966;8.230;2024-01-25T04:59:45;102020.94;;;7.52;100.00
37610;BME280;23457;51.966;8.230;2024-01-25T05:02:12;102022.94;;;7.40;100.00
37610;BME280;23457;51.966;8.230;2024-01-25T05:04:40;102020.72;;;7.48;100.00
37610;BME280;23457;51.966;8.230;2024-01-25T05:07:11;102024.53;;;7.21;100.00
37610;BME280;23457;51.966;8.230;2024-01-25T05:09:38;102012.94;;;7.30;100.00
37610;BME280;23457;51.966;8.230;2024-01-25T05:12:05;102024.63;;;7.40;100.00
37610;BME280;23457;51.966;8.230;2024-01-25T05:14:32;102020.09;;;7.18;100.00
37610;BME280;23457;51.966;8.230;2024-01-25T05:16:59;102017.81;;;6.90;100.00
37610;BME280;23457;51.966;8.230;2024-01-25T05:19:26;102020.09;;;7.18;100.00
37610;BME280;23457;51.966;8.230;2024-01-25T05:21:53;102018.66;;;7.07;100.00
37610;BME280;23457;51.966;8.230;2024-01-25T05:24:20;102023.31;;;6.96;100.00
37610;BME280;23457;51.966;8.230;2024-01-25T05:26:46;102018.53;;;6.88;100.00
37610;BME280;23457;51.966;8.230;2024-01-25T05:29:13;102029.28;;;6.79;100.00
37610;BME280;23457;51.966;8.230;2024-01-25T05:31:40;102031.44;;;6.88;100.00
37610;BME280;23457;51.966;8.230;2024-01-25T05:34:07;102033.22;;;6.89;100.00
37610;BME280;23457;51.966;8.230;2024-01-25T05:36:34;102033.09;;;6.69;100.00
37610;BME280;23457;51.966;8.230;2024-01-25T05:39:01;102029.88;;;6.57;100.00
37610;BME280;23457;51.966;8.230;2024-01-25T05:41:33;102024.38;;;6.51;100.00
37610;BME280;23457;51.966;8.230;2024-01-25T05:44:00;102027.34;;;6.42;100.00
37610;BME280;23457;51.966;8.230;2024-01-25T05:46:27;102023.00;;;6.58;100.00
37610;BME280;23457;51.966;8.230;2024-01-25T05:48:54;102024.84;;;6.28;100.00
37610;BME280;23457;51.966;8.230;2024-01-25T05:51:21;102030.25;;;6.32;100.00
37610;BME280;23457;51.966;8.230;2024-01-25T05:53:48;102023.78;;;6.40;100.00
37610;BME280;23457;51.966;8.230;2024-01-25T05:56:15;102023.41;;;6.33;100.00
37610;BME280;23457;51.966;8.230;2024-01-25T05:58:42;102025.22;;;6.35;100.00
37610;BME280;23457;51.966;8.230;2024-01-25T06:01:10;102028.53;;;6.17;100.00
37610;BME280;23457;51.966;8.230;2024-01-25T06:03:37;102026.63;;;6.29;100.00
37610;BME280;23457;51.966;8.230;2024-01-25T06:06:04;102029.19;;;6.29;100.00
37610;BME280;23457;51.966;8.230;2024-01-25T06:08:35;102046.41;;;6.14;100.00
37610;BME280;23457;51.966;8.230;2024-01-25T06:11:02;102045.88;;;6.19;100.00
37610;BME280;23457;51.966;8.230;2024-01-25T06:13:29;102052.75;;;6.19;100.00
37610;BME280;23457;51.966;8.230;2024-01-25T06:15:56;102054.22;;;6.30;100.00
37610;BME280;23457;51.966;8.230;2024-01-25T06:18:22;102058.97;;;6.38;100.00
37610;BME280;23457;51.966;8.230;2024-01-25T06:20:50;102057.69;;;6.30;100.00
37610;BME280;23457;51.966;8.230;2024-01-25T06:23:17;102057.91;;;6.35;100.00
37610;BME280;23457;51.966;8.230;2024-01-25T06:25:43;102058.34;;;6.42;100.00
37610;BME280;23457;51.966;8.230;2024-01-25T06:28:10;102067.44;;;6.20;100.00
37610;BME280;23457;51.966;8.230;2024-01-25T06:30:38;102056.63;;;6.27;100.00
37610;BME280;23457;51.966;8.230;2024-01-25T06:33:05;102058.97;;;6.38;100.00
37610;BME280;23457;51.966;8.230;2024-01-25T06:35:32;102061.31;;;6.03;100.00
37610;BME280;23457;51.966;8.230;2024-01-25T06:37:59;102066.69;;;5.91;100.00
37610;BME280;23457;51.966;8.230;2024-01-25T06:40:26;102067.09;;;5.84;100.00
37610;BME280;23457;51.966;8.230;2024-01-25T06:42:52;102075.63;;;5.83;100.00
37610;BME280;23457;51.966;8.230;2024-01-25T06:45:19;102064.91;;;5.90;100.00
37610;BME280;23457;51.966;8.230;2024-01-25T06:47:46;102072.03;;;5.80;100.00
37610;BME280;23457;51.966;8.230;2024-01-25T06:50:13;102074.53;;;5.93;100.00
37610;BME280;23457;51.966;8.230;2024-01-25T06:52:40;102071.28;;;5.97;100.00
37610;BME280;23457;51.966;8.230;2024-01-25T06:55:11;102076.72;;;5.87;100.00
37610;BME280;23457;51.966;8.230;2024-01-25T06:57:38;102081.28;;;5.61;100.00
37610;BME280;23457;51.966;8.230;2024-01-25T07:00:06;102091.69;;;5.78;100.00
37610;BME280;23457;51.966;8.230;2024-01-25T07:02:33;102092.31;;;5.88;100.00
37610;BME280;23457;51.966;8.230;2024-01-25T07:05:00;102088.03;;;5.74;100.00
37610;BME280;23457;51.966;8.230;2024-01-25T07:07:28;102095.78;;;5.89;100.00
37610;BME280;23457;51.966;8.230;2024-01-25T07:09:56;102086.69;;;5.95;100.00
37610;BME280;23457;51.966;8.230;2024-01-25T07:12:23;102097.25;;;5.85;100.00
37610;BME280;23457;51.966;8.230;2024-01-25T07:14:49;102104.59;;;5.63;100.00
37610;BME280;23457;51.966;8.230;2024-01-25T07:17:16;102108.31;;;5.68;100.00
37610;BME280;23457;51.966;8.230;2024-01-25T07:19:43;102106.25;;;5.77;100.00
37610;BME280;23457;51.966;8.230;2024-01-25T07:22:10;102101.66;;;5.57;100.00
37610;BME280;23457;51.966;8.230;2024-01-25T07:24:40;102094.97;;;5.75;100.00
37610;BME280;23457;51.966;8.230;2024-01-25T07:27:07;102095.25;;;5.65;100.00
37610;BME280;23457;51.966;8.230;2024-01-25T07:29:34;102089.19;;;5.64;100.00
37610;BME280;23457;51.966;8.230;2024-01-25T07:32:02;102095.59;;;5.42;100.00
37610;BME280;23457;51.966;8.230;2024-01-25T07:34:29;102100.22;;;5.62;100.00
37610;BME280;23457;51.966;8.230;2024-01-25T07:36:56;102105.47;;;5.49;100.00
37610;BME280;23457;51.966;8.230;2024-01-25T07:39:23;102114.72;;;5.60;100.00
37610;BME280;23457;51.966;8.230;2024-01-25T07:41:49;102117.09;;;5.71;100.00
37610;BME280;23457;51.966;8.230;2024-01-25T07:44:16;102116.50;;;5.75;100.00
37610;BME280;23457;51.966;8.230;2024-01-25T07:46:43;102122.72;;;5.79;100.00
37610;BME280;23457;51.966;8.230;2024-01-25T07:49:10;102112.31;;;5.48;100.00
37610;BME280;23457;51.966;8.230;2024-01-25T07:51:37;102113.81;;;5.74;100.00
37610;BME280;23457;51.966;8.230;2024-01-25T07:54:04;102116.22;;;5.86;100.00
37610;BME280;23457;51.966;8.230;2024-01-25T07:56:31;102112.75;;;5.85;100.00
37610;BME280;23457;51.966;8.230;2024-01-25T07:58:58;102114.63;;;5.73;100.00
37610;BME280;23457;51.966;8.230;2024-01-25T08:01:26;102110.81;;;5.81;100.00
37610;BME280;23457;51.966;8.230;2024-01-25T08:03:53;102112.59;;;5.97;100.00
37610;BME280;23457;51.966;8.230;2024-01-25T08:06:20;102123.28;;;5.88;100.00
37610;BME280;23457;51.966;8.230;2024-01-25T08:08:48;102114.13;;;5.93;100.00
37610;BME280;23457;51.966;8.230;2024-01-25T08:11:14;102114.81;;;5.76;100.00
37610;BME280;23457;51.966;8.230;2024-01-25T08:13:45;102123.34;;;5.75;100.00
37610;BME280;23457;51.966;8.230;2024-01-25T08:16:15;102123.28;;;5.88;100.00
37610;BME280;23457;51.966;8.230;2024-01-25T08:18:47;102130.00;;;5.71;100.00
37610;BME280;23457;51.966;8.230;2024-01-25T08:21:15;102126.44;;;5.84;100.00
37610;BME280;23457;51.966;8.230;2024-01-25T08:23:42;102131.44;;;5.81;100.00
37610;BME280;23457;51.966;8.230;2024-01-25T08:26:09;102135.16;;;5.86;100.00
37610;BME280;23457;51.966;8.230;2024-01-25T08:28:36;102125.94;;;5.90;100.00
37610;BME280;23457;51.966;8.230;2024-01-25T08:31:03;102127.03;;;5.93;100.00
37610;BME280;23457;51.966;8.230;2024-01-25T08:33:31;102131.44;;;6.10;100.00
37610;BME280;23457;51.966;8.230;2024-01-25T08:36:02;102124.66;;;6.13;100.00
37610;BME280;23457;51.966;8.230;2024-01-25T08:38:29;102132.19;;;5.93;100.00
37610;BME280;23457;51.966;8.230;2024-01-25T08:40:56;102118.47;;;5.94;100.00
37610;BME280;23457;51.966;8.230;2024-01-25T08:43:23;102126.97;;;6.08;100.00
37610;BME280;23457;51.966;8.230;2024-01-25T08:45:50;102127.16;;;6.11;100.00
37610;BME280;23457;51.966;8.230;2024-01-25T08:48:16;102141.59;;;6.07;100.00
37610;BME280;23457;51.966;8.230;2024-01-25T08:50:44;102147.09;;;5.99;100.00
37610;BME280;23457;51.966;8.230;2024-01-25T08:53:11;102154.25;;;5.88;100.00
37610;BME280;23457;51.966;8.230;2024-01-25T08:55:39;102147.97;;;6.29;100.00
37610;BME280;23457;51.966;8.230;2024-01-25T08:58:06;102143.41;;;6.25;100.00
37610;BME280;23457;51.966;8.230;2024-01-25T09:00:33;102152.25;;;6.14;100.00
37610;BME280;23457;51.966;8.230;2024-01-25T09:03:00;102149.06;;;6.18;100.00
37610;BME280;23457;51.966;8.230;2024-01-25T09:05:27;102144.75;;;6.33;100.00
37610;BME280;23457;51.966;8.230;2024-01-25T09:07:55;102143.50;;;6.26;100.00
37610;BME280;23457;51.966;8.230;2024-01-25T09:10:22;102148.50;;;6.23;100.00
37610;BME280;23457;51.966;8.230;2024-01-25T09:12:49;102149.59;;;6.12;100.00
37610;BME280;23457;51.966;8.230;2024-01-25T09:15:16;102147.09;;;6.14;100.00
37610;BME280;23457;51.966;8.230;2024-01-25T09:17:43;102147.41;;;6.34;100.00
37610;BME280;23457;51.966;8.230;2024-01-25T09:20:12;102144.28;;;6.40;100.00
37610;BME280;23457;51.966;8.230;2024-01-25T09:22:39;102155.63;;;6.58;100.00
37610;BME280;23457;51.966;8.230;2024-01-25T09:25:06;102156.56;;;6.60;100.00
37610;BME280;23457;51.966;8.230;2024-01-25T09:27:36;102164.34;;;6.60;100.00
37610;BME280;23457;51.966;8.230;2024-01-25T09:30:05;102166.91;;;6.60;100.00
37610;BME280;23457;51.966;8.230;2024-01-25T09:32:32;102165.31;;;6.62;100.00
37610;BME280;23457;51.966;8.230;2024-01-25T09:35:00;102167.53;;;6.71;100.00
37610;BME280;23457;51.966;8.230;2024-01-25T09:37:27;102173.19;;;6.49;100.00
37610;BME280;23457;51.966;8.230;2024-01-25T09:39:54;102175.69;;;6.78;100.00
37610;BME280;23457;51.966;8.230;2024-01-25T09:42:21;102172.28;;;6.48;100.00
37610;BME280;23457;51.966;8.230;2024-01-25T09:44:48;102177.28;;;6.76;100.00
37610;BME280;23457;51.966;8.230;2024-01-25T09:47:15;102178.69;;;7.02;100.00
37610;BME280;23457;51.966;8.230;2024-01-25T09:49:43;102184.84;;;7.04;100.00
37610;BME280;23457;51.966;8.230;2024-01-25T09:52:13;102192.66;;;6.90;100.00
37610;BME280;23457;51.966;8.230;2024-01-25T09:54:40;102187.75;;;6.63;100.00
37610;BME280;23457;51.966;8.230;2024-01-25T09:57:13;102188.91;;;6.84;100.00
37610;BME280;23457;51.966;8.230;2024-01-25T09:59:43;102187.97;;;6.82;100.00
37610;BME280;23457;51.966;8.230;2024-01-25T10:02:11;102183.56;;;6.96;100.00
37610;BME280;23457;51.966;8.230;2024-01-25T10:04:38;102183.59;;;6.81;100.00
37610;BME280;23457;51.966;8.230;2024-01-25T10:07:05;102182.66;;;6.96;100.00
37610;BME280;23457;51.966;8.230;2024-01-25T10:09:38;102192.16;;;6.97;100.00
37610;BME280;23457;51.966;8.230;2024-01-25T10:12:06;102196.38;;;6.95;100.00
37610;BME280;23457;51.966;8.230;2024-01-25T10:14:44;102199.63;;;7.07;100.00
37610;BME280;23457;51.966;8.230;2024-01-25T10:17:11;102199.31;;;7.33;100.00
37610;BME280;23457;51.966;8.230;2024-01-25T10:19:43;102192.28;;;7.31;100.00
37610;BME280;23457;51.966;8.230;2024-01-25T10:22:11;102209.59;;;7.32;100.00
37610;BME280;23457;51.966;8.230;2024-01-25T10:24:42;102203.00;;;7.22;100.00
37610;BME280;23457;51.966;8.230;2024-01-25T10:27:09;102204.16;;;7.43;100.00
37610;BME280;23457;51.966;8.230;2024-01-25T10:29:36;102194.28;;;7.36;100.00
37610;BME280;23457;51.966;8.230;2024-01-25T10:32:04;102188.50;;;7.74;100.00
37610;BME280;23457;51.966;8.230;2024-01-25T10:34:36;102192.50;;;7.51;100.00
37610;BME280;23457;51.966;8.230;2024-01-25T10:37:06;102183.53;;;7.45;100.00
37610;BME280;23457;51.966;8.230;2024-01-25T10:39:35;102189.44;;;7.59;100.00
37610;BME280;23457;51.966;8.230;2024-01-25T10:42:02;102179.81;;;7.40;100.00
37610;BME280;23457;51.966;8.230;2024-01-25T10:44:29;102184.06;;;7.72;100.00
37610;BME280;23457;51.966;8.230;2024-01-25T10:46:56;102184.81;;;7.69;100.00
37610;BME280;23457;51.966;8.230;2024-01-25T10:49:24;102186.84;;;7.59;100.00
37610;BME280;23457;51.966;8.230;2024-01-25T10:51:51;102183.13;;;7.87;100.00
37610;BME280;23457;51.966;8.230;2024-01-25T10:54:19;102186.84;;;7.93;100.00
37610;BME280;23457;51.966;8.230;2024-01-25T10:56:46;102182.84;;;7.99;100.00
37610;BME280;23457;51.966;8.230;2024-01-25T10:59:15;102175.06;;;7.99;100.00
37610;BME280;23457;51.966;8.230;2024-01-25T11:01:46;102164.50;;;8.12;100.00
37610;BME280;23457;51.966;8.230;2024-01-25T11:04:17;102164.16;;;8.22;100.00
37610;BME280;23457;51.966;8.230;2024-01-25T11:06:45;102169.59;;;8.11;100.00
37610;BME280;23457;51.966;8.230;2024-01-25T11:09:20;102168.63;;;7.91;100.00
37610;BME280;23457;51.966;8.230;2024-01-25T11:11:48;102183.09;;;8.21;100.00
37610;BME280;23457;51.966;8.230;2024-01-25T11:14:16;102172.81;;;8.05;100.00
37610;BME280;23457;51.966;8.230;2024-01-25T11:16:43;102167.59;;;7.87;100.00
37610;BME280;23457;51.966;8.230;2024-01-25T11:19:18;102175.34;;;8.21;100.00
37610;BME280;23457;51.966;8.230;2024-01-25T11:21:47;102160.97;;;8.10;100.00
37610;BME280;23457;51.966;8.230;2024-01-25T11:24:23;102161.22;;;7.81;100.00
37610;BME280;23457;51.966;8.230;2024-01-25T11:26:50;102157.88;;;8.17;100.00
37610;BME280;23457;51.966;8.230;2024-01-25T11:29:18;102153.91;;;7.90;100.00
37610;BME280;23457;51.966;8.230;2024-01-25T11:31:48;102154.44;;;8.01;100.00
37610;BME280;23457;51.966;8.230;2024-01-25T11:34:16;102145.06;;;8.20;100.00
37610;BME280;23457;51.966;8.230;2024-01-25T11:36:45;102145.44;;;8.10;100.00
37610;BME280;23457;51.966;8.230;2024-01-25T11:39:14;102144.09;;;8.18;100.00
37610;BME280;23457;51.966;8.230;2024-01-25T11:41:43;102142.63;;;8.41;100.00
37610;BME280;23457;51.966;8.230;2024-01-25T11:44:11;102134.03;;;8.60;100.00
37610;BME280;23457;51.966;8.230;2024-01-25T11:46:38;102128.78;;;8.58;100.00
37610;BME280;23457;51.966;8.230;2024-01-25T11:49:06;102131.19;;;8.73;100.00
37610;BME280;23457;51.966;8.230;2024-01-25T11:51:36;102134.88;;;8.78;100.00
37610;BME280;23457;51.966;8.230;2024-01-25T11:54:03;102135.66;;;8.58;100.00
37610;BME280;23457;51.966;8.230;2024-01-25T11:56:39;102147.50;;;8.53;100.00
37610;BME280;23457;51.966;8.230;2024-01-25T11:59:09;102137.94;;;8.52;100.00
37610;BME280;23457;51.966;8.230;2024-01-25T12:01:37;102139.16;;;8.23;100.00
37610;BME280;23457;51.966;8.230;2024-01-25T12:04:04;102130.09;;;8.68;100.00
37610;BME280;23457;51.966;8.230;2024-01-25T12:06:31;102143.75;;;8.83;100.00
37610;BME280;23457;51.966;8.230;2024-01-25T12:09:08;102128.94;;;9.00;100.00
37610;BME280;23457;51.966;8.230;2024-01-25T12:11:36;102131.88;;;9.08;100.00
37610;BME280;23457;51.966;8.230;2024-01-25T12:14:03;102142.75;;;9.39;100.00
37610;BME280;23457;51.966;8.230;2024-01-25T12:16:30;102149.63;;;9.18;100.00
37610;BME280;23457;51.966;8.230;2024-01-25T12:19:02;102141.41;;;9.28;100.00
37610;BME280;23457;51.966;8.230;2024-01-25T12:21:32;102143.56;;;9.57;100.00
37610;BME280;23457;51.966;8.230;2024-01-25T12:23:59;102140.09;;;9.57;100.00
37610;BME280;23457;51.966;8.230;2024-01-25T12:26:26;102138.69;;;9.25;100.00
37610;BME280;23457;51.966;8.230;2024-01-25T12:28:53;102136.47;;;9.53;100.00
37610;BME280;23457;51.966;8.230;2024-01-25T12:31:20;102126.09;;;9.53;100.00
37610;BME280;23457;51.966;8.230;2024-01-25T12:33:47;102124.97;;;9.67;100.00
37610;BME280;23457;51.966;8.230;2024-01-25T12:36:14;102122.81;;;9.57;100.00
37610;BME280;23457;51.966;8.230;2024-01-25T12:38:41;102113.75;;;9.89;100.00
37610;BME280;23457;51.966;8.230;2024-01-25T12:41:08;102115.84;;;9.77;100.00
37610;BME280;23457;51.966;8.230;2024-01-25T12:43:35;102102.19;;;9.60;100.00
37610;BME280;23457;51.966;8.230;2024-01-25T12:46:02;102095.94;;;9.36;100.00
37610;BME280;23457;51.966;8.230;2024-01-25T12:48:47;102104.56;;;9.35;100.00
37610;BME280;23457;51.966;8.230;2024-01-25T12:51:14;102104.91;;;9.23;100.00
37610;BME280;23457;51.966;8.230;2024-01-25T12:53:41;102107.63;;;8.88;100.00